Time;durP1;ratioP1;P1;durP2;ratioP2;P2;SDS_P1;SDS_P2;PMS_P1;PMS_P2;Temp;Humidity;BMP_temperature;BMP_pressure;BME280_temperature;BME280_humidity;BME280_pressure;Samples;Min_cycle;Max_cycle;Signal;HPM_P1;HPM_P2
2021/01/24 00:01:21;;;;;;;3.60;3.30;;;3.20;99.90;;;;;;493336;241;27984;-71
2021/01/24 00:03:22;;;;;;;3.72;3.40;;;3.30;99.90;;;;;;493382;241;28707;-69
2021/01/24 00:05:23;;;;;;;4.80;3.85;;;3.30;99.90;;;;;;493371;241;29078;-70
2021/01/24 00:07:25;;;;;;;4.43;3.42;;;3.30;99.90;;;;;;493386;241;27433;-70
2021/01/24 00:09:26;;;;;;;3.72;3.42;;;3.30;99.90;;;;;;493479;241;27557;-69
2021/01/24 00:11:27;;;;;;;4.25;3.85;;;3.30;99.90;;;;;;493436;241;27427;-70
2021/01/24 00:13:28;;;;;;;3.03;2.80;;;3.40;99.90;;;;;;493464;241;27517;-70
2021/01/24 00:15:30;;;;;;;4.57;3.80;;;3.40;99.90;;;;;;493430;241;27469;-71
2021/01/24 00:17:31;;;;;;;3.47;3.17;;;3.40;99.90;;;;;;493296;241;27496;-70
2021/01/24 00:19:32;;;;;;;3.00;2.80;;;3.40;99.90;;;;;;493345;241;27834;-70
2021/01/24 00:21:33;;;;;;;3.50;3.17;;;3.40;99.90;;;;;;493121;241;27434;-71
2021/01/24 00:23:35;;;;;;;4.18;3.78;;;3.40;99.90;;;;;;493378;241;27533;-71
2021/01/24 00:25:36;;;;;;;4.22;3.20;;;3.30;99.90;;;;;;493287;241;27546;-70
2021/01/24 00:27:37;;;;;;;3.53;3.25;;;3.20;99.90;;;;;;493341;241;27474;-70
2021/01/24 00:29:38;;;;;;;3.35;3.12;;;3.10;99.90;;;;;;493306;241;28073;-70
2021/01/24 00:31:40;;;;;;;2.95;2.65;;;3.10;99.90;;;;;;493304;241;28061;-71
2021/01/24 00:33:41;;;;;;;3.47;3.17;;;3.10;99.90;;;;;;493368;241;27908;-70
2021/01/24 00:35:42;;;;;;;4.65;2.75;;;3.10;99.90;;;;;;493367;241;27419;-70
2021/01/24 00:37:43;;;;;;;2.35;2.15;;;3.10;99.90;;;;;;493372;241;27505;-70
2021/01/24 00:39:45;;;;;;;3.55;2.70;;;3.00;99.90;;;;;;493390;241;27425;-70
2021/01/24 00:41:46;;;;;;;3.37;2.70;;;3.00;99.90;;;;;;493366;241;27512;-70
2021/01/24 00:43:47;;;;;;;2.55;2.35;;;3.00;99.90;;;;;;493441;241;27434;-70
2021/01/24 00:45:48;;;;;;;3.37;2.60;;;2.70;99.90;;;;;;493399;241;27519;-71
2021/01/24 00:47:50;;;;;;;2.10;2.00;;;2.60;99.90;;;;;;493497;241;27482;-70
2021/01/24 00:49:51;;;;;;;3.03;2.22;;;2.70;99.90;;;;;;493497;241;27546;-70
2021/01/24 00:51:52;;;;;;;1.80;1.70;;;2.60;99.90;;;;;;493355;241;27399;-70
2021/01/24 00:53:53;;;;;;;2.10;2.00;;;2.60;99.90;;;;;;493406;241;27605;-70
2021/01/24 00:55:55;;;;;;;2.20;2.00;;;2.50;99.90;;;;;;493414;238;27914;-71
2021/01/24 00:57:56;;;;;;;1.87;1.77;;;2.60;99.90;;;;;;493441;241;27858;-70
2021/01/24 00:59:57;;;;;;;1.98;1.87;;;2.60;99.90;;;;;;493465;241;27869;-71
2021/01/24 01:01:58;;;;;;;2.10;2.00;;;2.60;99.90;;;;;;493416;241;27928;-70
2021/01/24 01:04:00;;;;;;;2.10;1.90;;;2.50;99.90;;;;;;493402;241;27588;-70
2021/01/24 01:06:01;;;;;;;1.95;1.85;;;2.50;99.90;;;;;;493479;241;27418;-71
2021/01/24 01:08:02;;;;;;;1.92;1.83;;;2.50;99.90;;;;;;493519;241;27490;-70
2021/01/24 01:10:03;;;;;;;4.60;2.08;;;2.40;99.90;;;;;;493508;241;27417;-72
2021/01/24 01:12:05;;;;;;;2.40;2.20;;;2.30;99.90;;;;;;493598;238;27386;-70
2021/01/24 01:14:06;;;;;;;2.35;2.15;;;2.30;99.90;;;;;;493613;241;27504;-70
2021/01/24 01:16:07;;;;;;;2.47;2.28;;;2.30;99.90;;;;;;493616;241;27425;-70
2021/01/24 01:18:08;;;;;;;2.72;2.53;;;2.30;99.90;;;;;;493648;240;27390;-70
2021/01/24 01:20:10;;;;;;;1.83;1.73;;;2.30;99.90;;;;;;493562;241;27488;-70
2021/01/24 01:22:11;;;;;;;1.90;1.80;;;2.30;99.90;;;;;;493438;241;27453;-70
2021/01/24 01:24:12;;;;;;;2.10;2.00;;;2.30;99.90;;;;;;493326;238;27479;-70
2021/01/24 01:26:13;;;;;;;2.60;2.40;;;2.30;99.90;;;;;;493357;241;27909;-71
2021/01/24 01:28:15;;;;;;;2.40;2.30;;;2.20;99.90;;;;;;493391;241;28319;-70
2021/01/24 01:30:16;;;;;;;4.12;3.67;;;2.20;99.90;;;;;;493338;241;29022;-71
2021/01/24 01:32:17;;;;;;;1.80;1.70;;;2.20;99.90;;;;;;493408;241;27504;-70
2021/01/24 01:34:18;;;;;;;2.10;2.00;;;2.10;99.90;;;;;;493360;241;27605;-70
2021/01/24 01:36:20;;;;;;;2.62;2.42;;;2.10;99.90;;;;;;493383;241;27531;-71
2021/01/24 01:38:21;;;;;;;10.10;9.20;;;2.10;99.90;;;;;;493441;241;27532;-70
2021/01/24 01:40:22;;;;;;;2.28;2.17;;;2.10;99.90;;;;;;493458;241;27418;-70
2021/01/24 01:42:23;;;;;;;2.30;2.20;;;2.10;99.90;;;;;;493531;241;27604;-69
2021/01/24 01:44:25;;;;;;;2.45;2.35;;;2.10;99.90;;;;;;493532;241;27497;-70
2021/01/24 01:46:26;;;;;;;2.22;2.10;;;2.10;99.90;;;;;;493508;241;27566;-70
2021/01/24 01:48:27;;;;;;;2.87;2.12;;;2.10;99.90;;;;;;493442;241;27454;-69
2021/01/24 01:50:28;;;;;;;2.65;2.45;;;2.00;99.90;;;;;;493199;241;27437;-70
2021/01/24 01:52:30;;;;;;;2.28;2.08;;;2.00;99.90;;;;;;493407;241;28076;-71
2021/01/24 01:54:31;;;;;;;2.00;1.90;;;2.00;99.90;;;;;;493387;241;27890;-71
2021/01/24 01:56:32;;;;;;;2.40;2.22;;;1.90;99.90;;;;;;493411;241;27928;-71
2021/01/24 01:58:33;;;;;;;2.20;2.10;;;2.00;99.90;;;;;;493423;241;27889;-70
2021/01/24 02:00:35;;;;;;;2.05;1.95;;;2.00;99.90;;;;;;493399;241;27482;-70
2021/01/24 02:02:36;;;;;;;2.12;2.03;;;2.00;99.90;;;;;;493417;241;27414;-72
2021/01/24 02:04:37;;;;;;;1.90;1.80;;;2.00;99.90;;;;;;493412;241;27493;-72
2021/01/24 02:06:38;;;;;;;2.20;2.05;;;1.90;99.90;;;;;;493381;241;27426;-70
2021/01/24 02:08:40;;;;;;;2.05;1.95;;;1.90;99.90;;;;;;493407;241;27501;-71
2021/01/24 02:10:41;;;;;;;1.90;1.80;;;1.80;99.90;;;;;;493408;241;27406;-70
2021/01/24 02:12:42;;;;;;;2.10;2.00;;;1.90;99.90;;;;;;493437;241;27453;-69
2021/01/24 02:14:43;;;;;;;2.00;1.90;;;1.80;99.90;;;;;;493371;241;27696;-71
2021/01/24 02:16:45;;;;;;;2.10;2.00;;;1.90;99.90;;;;;;493397;241;27421;-70
2021/01/24 02:18:46;;;;;;;2.33;2.15;;;1.90;99.90;;;;;;493495;241;27484;-71
2021/01/24 02:20:47;;;;;;;2.35;2.25;;;1.90;99.90;;;;;;493418;241;27913;-70
2021/01/24 02:22:48;;;;;;;2.78;2.30;;;1.90;99.90;;;;;;493371;241;27886;-70
2021/01/24 02:24:50;;;;;;;3.30;3.10;;;1.90;99.90;;;;;;493395;241;28064;-69
2021/01/24 02:26:51;;;;;;;3.30;3.00;;;1.90;99.90;;;;;;493372;241;28127;-69
2021/01/24 02:28:54;;;;;;;3.15;2.95;;;1.90;99.90;;;;;;493367;241;27534;-71
2021/01/24 02:30:55;;;;;;;3.45;3.20;;;1.80;99.90;;;;;;493466;241;27410;-70
2021/01/24 02:32:56;;;;;;;3.72;3.42;;;1.80;99.90;;;;;;493589;241;27486;-70
2021/01/24 02:34:58;;;;;;;3.47;3.17;;;1.80;99.90;;;;;;493588;241;27961;-70
2021/01/24 02:36:59;;;;;;;4.22;3.65;;;1.70;99.90;;;;;;493552;241;28033;-70
2021/01/24 02:39:00;;;;;;;5.15;4.30;;;1.80;99.90;;;;;;493512;238;28380;-70
2021/01/24 02:41:01;;;;;;;4.12;3.70;;;1.70;99.90;;;;;;493423;241;27913;-70
2021/01/24 02:43:03;;;;;;;4.60;4.07;;;1.70;99.90;;;;;;493409;241;27503;-70
2021/01/24 02:45:04;;;;;;;6.10;4.32;;;1.70;99.90;;;;;;493347;241;27566;-70
2021/01/24 02:47:05;;;;;;;6.75;4.47;;;1.70;99.90;;;;;;493377;241;27501;-70
2021/01/24 02:49:06;;;;;;;6.10;4.45;;;1.60;99.90;;;;;;493365;241;27417;-71
2021/01/24 02:51:08;;;;;;;5.97;4.87;;;1.70;99.90;;;;;;493315;241;27501;-70
2021/01/24 02:53:09;;;;;;;6.50;4.80;;;1.60;99.90;;;;;;493422;238;27501;-70
2021/01/24 02:55:10;;;;;;;6.60;4.45;;;1.60;99.90;;;;;;493406;241;27391;-70
2021/01/24 02:57:11;;;;;;;6.97;5.18;;;1.60;99.90;;;;;;493384;241;27490;-70
2021/01/24 02:59:13;;;;;;;7.12;5.35;;;1.70;99.90;;;;;;493369;241;27518;-70
2021/01/24 03:01:14;;;;;;;8.65;5.40;;;1.70;99.90;;;;;;493342;241;27417;-70
2021/01/24 03:03:15;;;;;;;7.00;5.35;;;1.70;99.90;;;;;;493401;241;27880;-70
2021/01/24 03:05:16;;;;;;;8.07;5.50;;;1.80;99.90;;;;;;493426;241;28048;-69
2021/01/24 03:07:18;;;;;;;8.57;6.22;;;1.80;99.90;;;;;;493410;241;27979;-70
2021/01/24 03:09:19;;;;;;;9.73;6.62;;;1.80;99.90;;;;;;493454;241;27884;-70
2021/01/24 03:11:20;;;;;;;9.85;6.62;;;1.80;99.90;;;;;;493400;241;27594;-69
2021/01/24 03:13:21;;;;;;;12.27;8.25;;;1.80;99.90;;;;;;493501;241;27427;-70
2021/01/24 03:15:23;;;;;;;10.50;7.35;;;1.80;99.90;;;;;;493501;238;27430;-71
2021/01/24 03:17:24;;;;;;;11.32;7.90;;;1.70;99.90;;;;;;493461;241;27527;-70
2021/01/24 03:19:25;;;;;;;10.63;8.43;;;1.70;99.90;;;;;;493440;241;27434;-70
2021/01/24 03:21:26;;;;;;;11.27;7.47;;;1.70;99.90;;;;;;493447;241;27437;-69
2021/01/24 03:23:28;;;;;;;14.70;8.82;;;1.70;99.90;;;;;;493516;241;27489;-72
2021/01/24 03:25:29;;;;;;;10.95;7.95;;;1.60;99.90;;;;;;493316;241;27405;-70
2021/01/24 03:27:30;;;;;;;13.55;9.35;;;1.60;99.90;;;;;;493355;241;27951;-70
2021/01/24 03:29:31;;;;;;;13.20;8.35;;;1.60;99.90;;;;;;493348;241;29021;-70
2021/01/24 03:31:33;;;;;;;12.88;8.10;;;1.50;99.90;;;;;;493329;241;28675;-70
2021/01/24 03:33:34;;;;;;;12.82;8.30;;;1.50;99.90;;;;;;493412;241;27596;-70
2021/01/24 03:35:35;;;;;;;14.82;8.70;;;1.50;99.90;;;;;;493379;241;27635;-69
2021/01/24 03:37:36;;;;;;;12.45;8.02;;;1.50;99.90;;;;;;493380;241;27604;-72
2021/01/24 03:39:38;;;;;;;13.57;8.00;;;1.60;99.90;;;;;;493364;241;27611;-69
2021/01/24 03:41:39;;;;;;;10.60;8.25;;;1.60;99.90;;;;;;493341;241;27990;-71
2021/01/24 03:43:40;;;;;;;15.27;9.32;;;1.50;99.90;;;;;;493413;241;27529;-70
2021/01/24 03:45:42;;;;;;;12.37;7.90;;;1.50;99.90;;;;;;493484;241;27437;-70
2021/01/24 03:47:43;;;;;;;14.48;9.18;;;1.50;99.90;;;;;;493482;241;29047;-71
2021/01/24 03:49:44;;;;;;;13.77;9.40;;;1.50;99.90;;;;;;493421;241;27374;-69
2021/01/24 03:51:45;;;;;;;17.92;9.48;;;1.40;99.90;;;;;;493349;241;28075;-70
2021/01/24 03:53:47;;;;;;;11.30;8.40;;;1.50;99.90;;;;;;493416;241;27918;-70
2021/01/24 03:55:48;;;;;;;11.52;8.48;;;1.50;99.90;;;;;;493416;241;27509;-70
2021/01/24 03:57:49;;;;;;;16.77;9.45;;;1.50;99.90;;;;;;493483;241;27405;-72
2021/01/24 03:59:51;;;;;;;14.45;7.93;;;1.60;99.90;;;;;;493563;241;27379;-70
2021/01/24 04:01:52;;;;;;;11.23;7.90;;;1.50;99.90;;;;;;493498;241;27414;-70
2021/01/24 04:03:53;;;;;;;12.88;7.53;;;1.40;99.90;;;;;;493573;241;27382;-69
2021/01/24 04:05:54;;;;;;;11.68;8.40;;;1.40;99.90;;;;;;493605;241;27505;-70
2021/01/24 04:07:55;;;;;;;12.27;7.72;;;1.40;99.90;;;;;;493579;241;27442;-72
2021/01/24 04:09:57;;;;;;;11.35;7.97;;;1.50;99.90;;;;;;493543;241;27558;-69
2021/01/24 04:11:58;;;;;;;17.40;7.70;;;1.40;99.90;;;;;;493464;241;27921;-70
2021/01/24 04:13:59;;;;;;;11.93;7.50;;;1.40;99.90;;;;;;493431;241;27830;-70
2021/01/24 04:16:00;;;;;;;14.30;8.05;;;1.40;99.90;;;;;;493420;241;27422;-70
2021/01/24 04:18:02;;;;;;;13.75;7.35;;;1.40;99.90;;;;;;493445;241;27399;-72
2021/01/24 04:20:03;;;;;;;10.77;7.97;;;1.40;99.90;;;;;;493418;241;27377;-70
2021/01/24 04:22:04;;;;;;;14.35;7.37;;;1.50;99.90;;;;;;493412;241;27494;-70
2021/01/24 04:24:05;;;;;;;8.80;6.90;;;1.40;99.90;;;;;;493397;241;27418;-70
2021/01/24 04:26:07;;;;;;;13.60;7.45;;;1.40;99.90;;;;;;493289;241;27467;-70
2021/01/24 04:28:08;;;;;;;9.55;7.25;;;1.50;99.90;;;;;;493389;241;27605;-70
2021/01/24 04:30:09;;;;;;;11.10;7.45;;;1.40;99.90;;;;;;493369;241;27437;-70
2021/01/24 04:32:10;;;;;;;12.37;7.60;;;1.30;99.90;;;;;;493401;241;28058;-70
2021/01/24 04:34:12;;;;;;;9.40;7.43;;;1.40;99.90;;;;;;493394;241;27882;-71
2021/01/24 04:36:13;;;;;;;9.07;7.07;;;1.40;99.90;;;;;;493380;241;27882;-70
2021/01/24 04:38:14;;;;;;;8.45;6.35;;;1.30;99.90;;;;;;493382;241;27430;-70
2021/01/24 04:40:15;;;;;;;8.00;6.65;;;1.20;99.90;;;;;;493388;241;27390;-69
2021/01/24 04:42:17;;;;;;;12.35;7.30;;;1.30;99.90;;;;;;493447;241;27430;-72
2021/01/24 04:44:18;;;;;;;9.13;5.82;;;1.30;99.90;;;;;;493400;241;27429;-70
2021/01/24 04:46:19;;;;;;;9.57;7.30;;;1.20;99.90;;;;;;493423;241;27430;-70
2021/01/24 04:48:20;;;;;;;9.52;7.05;;;1.20;99.90;;;;;;493455;241;27513;-70
2021/01/24 04:50:22;;;;;;;9.13;5.90;;;1.30;99.90;;;;;;493454;241;27421;-69
2021/01/24 04:52:23;;;;;;;9.13;5.85;;;1.30;99.90;;;;;;493550;241;27399;-70
2021/01/24 04:54:24;;;;;;;11.38;6.40;;;1.30;99.90;;;;;;493545;241;27390;-70
2021/01/24 04:56:26;;;;;;;8.50;6.15;;;1.30;99.90;;;;;;493467;241;27526;-70
2021/01/24 04:58:27;;;;;;;8.52;6.15;;;1.20;99.90;;;;;;493319;241;27960;-70
2021/01/24 05:00:28;;;;;;;7.07;5.68;;;1.10;99.90;;;;;;493338;241;28075;-71
2021/01/24 05:02:29;;;;;;;9.57;5.68;;;1.20;99.90;;;;;;493430;241;27994;-71
2021/01/24 05:04:30;;;;;;;8.00;6.05;;;1.20;99.90;;;;;;493406;241;27917;-70
2021/01/24 05:06:32;;;;;;;9.70;6.82;;;1.20;99.90;;;;;;493388;241;27517;-70
2021/01/24 05:08:33;;;;;;;8.32;5.80;;;1.20;99.90;;;;;;493402;241;27415;-69
2021/01/24 05:10:34;;;;;;;7.90;6.15;;;1.20;99.90;;;;;;493381;241;27427;-71
2021/01/24 05:12:35;;;;;;;9.68;6.00;;;1.20;99.90;;;;;;493415;241;27513;-69
2021/01/24 05:14:37;;;;;;;8.10;5.80;;;1.20;99.90;;;;;;493367;241;27449;-69
2021/01/24 05:16:38;;;;;;;7.50;6.20;;;1.20;99.90;;;;;;493403;241;27529;-70
2021/01/24 05:18:39;;;;;;;7.55;5.62;;;1.00;99.90;;;;;;493458;241;27386;-70
2021/01/24 05:20:40;;;;;;;8.60;6.30;;;1.10;99.90;;;;;;493365;241;27507;-70
2021/01/24 05:22:42;;;;;;;8.15;6.30;;;1.10;99.90;;;;;;493484;241;27569;-70
2021/01/24 05:24:43;;;;;;;9.63;6.72;;;1.00;99.90;;;;;;493486;241;27398;-70
2021/01/24 05:26:44;;;;;;;7.35;5.70;;;1.00;99.90;;;;;;493303;238;28192;-71
2021/01/24 05:28:45;;;;;;;11.20;6.85;;;1.10;99.90;;;;;;493548;241;27835;-70
2021/01/24 05:30:47;;;;;;;10.40;6.65;;;1.10;99.90;;;;;;493476;241;27988;-70
2021/01/24 05:32:48;;;;;;;10.50;6.70;;;1.20;99.90;;;;;;493535;241;27503;-69
2021/01/24 05:34:51;;;;;;;7.60;6.40;;;1.10;99.90;;;;;;493550;241;27449;-70
2021/01/24 05:36:50;;;;;;;7.45;6.68;;;1.10;99.90;;;;;;493491;241;27403;-71
2021/01/24 05:38:52;;;;;;;9.50;7.72;;;1.20;99.90;;;;;;493565;241;27471;-69
2021/01/24 05:40:53;;;;;;;7.50;6.20;;;1.20;99.90;;;;;;493535;241;27491;-70
2021/01/24 05:42:54;;;;;;;9.35;6.70;;;1.20;99.90;;;;;;493522;241;27493;-70
2021/01/24 05:44:55;;;;;;;8.95;6.47;;;1.20;99.90;;;;;;493537;241;27590;-69
2021/01/24 05:46:57;;;;;;;8.70;6.10;;;1.20;99.90;;;;;;493535;241;27562;-70
2021/01/24 05:48:58;;;;;;;8.38;6.12;;;1.10;99.90;;;;;;493519;241;27411;-69
2021/01/24 05:50:59;;;;;;;7.12;6.40;;;1.00;99.90;;;;;;493394;241;27522;-69
2021/01/24 05:53:00;;;;;;;7.15;5.85;;;1.00;99.90;;;;;;493412;241;28045;-69
2021/01/24 05:55:02;;;;;;;11.25;5.82;;;0.90;99.90;;;;;;493393;241;27983;-70
2021/01/24 05:57:03;;;;;;;9.38;5.95;;;1.00;99.90;;;;;;493394;241;27896;-71
2021/01/24 05:59:04;;;;;;;6.87;5.50;;;1.00;99.90;;;;;;493396;241;27990;-69
2021/01/24 06:01:05;;;;;;;7.95;6.40;;;1.00;99.90;;;;;;493361;241;27509;-70
2021/01/24 06:03:07;;;;;;;7.90;5.65;;;1.10;99.90;;;;;;493410;241;27434;-70
2021/01/24 06:05:08;;;;;;;9.05;5.50;;;1.10;99.90;;;;;;493403;241;27426;-69
2021/01/24 06:07:09;;;;;;;7.25;5.55;;;1.10;99.90;;;;;;493406;241;27454;-69
2021/01/24 06:09:10;;;;;;;6.53;5.85;;;1.00;99.90;;;;;;493417;241;27425;-69
2021/01/24 06:11:12;;;;;;;8.57;6.55;;;1.00;99.90;;;;;;493314;241;27521;-70
2021/01/24 06:13:13;;;;;;;8.00;5.62;;;1.00;99.90;;;;;;493418;241;27442;-70
2021/01/24 06:15:14;;;;;;;8.55;6.12;;;0.90;99.90;;;;;;493408;241;27408;-70
2021/01/24 06:17:15;;;;;;;10.25;6.03;;;1.00;99.90;;;;;;493426;241;27402;-70
2021/01/24 06:19:17;;;;;;;7.62;6.35;;;0.90;99.90;;;;;;493443;241;28618;-69
2021/01/24 06:21:18;;;;;;;6.62;5.90;;;0.90;99.90;;;;;;493376;241;28001;-70
2021/01/24 06:23:19;;;;;;;11.48;6.28;;;0.90;99.90;;;;;;493454;241;27912;-70
2021/01/24 06:25:20;;;;;;;9.70;6.10;;;0.90;99.90;;;;;;493486;241;28028;-69
2021/01/24 06:27:22;;;;;;;8.73;6.60;;;1.00;99.90;;;;;;493501;238;27493;-70
2021/01/24 06:29:23;;;;;;;7.25;5.90;;;1.00;99.90;;;;;;493495;241;27501;-71
2021/01/24 06:31:24;;;;;;;10.32;6.07;;;1.00;99.90;;;;;;493368;241;27442;-71
2021/01/24 06:33:25;;;;;;;7.78;5.93;;;1.00;99.90;;;;;;493326;241;27473;-70
2021/01/24 06:35:27;;;;;;;8.23;6.45;;;0.90;99.90;;;;;;493380;241;27421;-69
2021/01/24 06:37:28;;;;;;;9.38;6.50;;;1.00;99.90;;;;;;493342;241;27592;-69
2021/01/24 06:39:29;;;;;;;8.43;6.53;;;1.00;99.90;;;;;;493430;241;27426;-70
2021/01/24 06:41:30;;;;;;;9.98;7.32;;;1.00;99.90;;;;;;493350;241;27986;-70
2021/01/24 06:43:32;;;;;;;10.27;6.78;;;1.00;99.90;;;;;;493380;241;27505;-70
2021/01/24 06:45:33;;;;;;;7.55;6.40;;;1.00;99.90;;;;;;493348;241;28815;-70
2021/01/24 06:47:34;;;;;;;8.18;6.55;;;1.00;99.90;;;;;;493401;241;27957;-70
2021/01/24 06:49:35;;;;;;;7.45;5.60;;;1.00;99.90;;;;;;493416;241;27889;-70
2021/01/24 06:51:37;;;;;;;9.10;6.32;;;1.00;99.90;;;;;;493334;238;28087;-71
2021/01/24 06:53:38;;;;;;;8.38;6.75;;;1.00;99.90;;;;;;493408;241;27426;-70
2021/01/24 06:55:41;;;;;;;7.85;6.50;;;0.90;99.90;;;;;;493398;241;27478;-70
2021/01/24 06:57:40;;;;;;;9.90;7.22;;;1.00;99.90;;;;;;493292;241;27478;-69
2021/01/24 06:59:42;;;;;;;12.30;6.53;;;1.00;99.90;;;;;;493473;241;27506;-69
2021/01/24 07:01:43;;;;;;;7.35;6.07;;;0.90;99.90;;;;;;493403;241;27406;-70
2021/01/24 07:03:44;;;;;;;9.30;7.22;;;1.00;99.90;;;;;;493396;241;27524;-69
2021/01/24 07:05:46;;;;;;;9.52;6.40;;;1.00;99.90;;;;;;493445;241;27767;-72
2021/01/24 07:07:47;;;;;;;10.48;6.50;;;1.00;99.90;;;;;;493418;241;27649;-69
2021/01/24 07:09:48;;;;;;;9.45;7.00;;;1.00;99.90;;;;;;493392;241;27503;-70
2021/01/24 07:11:52;;;;;;;8.70;6.30;;;1.00;99.90;;;;;;493509;241;27472;-69
2021/01/24 07:13:53;;;;;;;10.50;6.40;;;1.00;99.90;;;;;;493570;241;27463;-69
2021/01/24 07:15:54;;;;;;;10.35;6.87;;;0.90;99.90;;;;;;493562;241;27422;-70
2021/01/24 07:17:56;;;;;;;10.05;6.60;;;0.90;99.90;;;;;;493497;241;27430;-71
2021/01/24 07:19:57;;;;;;;11.35;7.45;;;1.00;99.90;;;;;;493498;241;27831;-70
2021/01/24 07:21:58;;;;;;;6.85;6.15;;;0.90;99.90;;;;;;493401;241;27981;-72
2021/01/24 07:23:59;;;;;;;10.10;6.37;;;0.90;99.90;;;;;;493392;238;27910;-70
2021/01/24 07:26:01;;;;;;;8.30;6.82;;;0.90;99.90;;;;;;493413;241;27419;-70
2021/01/24 07:28:02;;;;;;;8.48;6.60;;;0.80;99.90;;;;;;493271;241;27642;-70
2021/01/24 07:30:03;;;;;;;9.55;7.30;;;0.80;99.90;;;;;;493376;241;27488;-70
2021/01/24 07:32:04;;;;;;;8.05;6.85;;;0.80;99.90;;;;;;493397;241;27418;-71
2021/01/24 07:34:06;;;;;;;7.15;6.07;;;0.90;99.90;;;;;;493393;241;27882;-70
2021/01/24 07:36:07;;;;;;;14.85;7.62;;;0.90;99.90;;;;;;493363;238;27566;-69
2021/01/24 07:38:08;;;;;;;9.43;6.93;;;0.90;99.90;;;;;;493344;241;27542;-69
2021/01/24 07:40:09;;;;;;;11.20;7.40;;;0.90;99.90;;;;;;493326;239;27433;-70
2021/01/24 07:42:11;;;;;;;7.53;6.68;;;0.90;99.90;;;;;;493377;241;27438;-69
2021/01/24 07:44:12;;;;;;;11.20;7.45;;;0.90;99.90;;;;;;493391;241;27993;-70
2021/01/24 07:46:13;;;;;;;10.50;6.97;;;0.90;99.90;;;;;;493377;241;28040;-69
2021/01/24 07:48:15;;;;;;;12.73;7.78;;;0.90;99.90;;;;;;493346;241;28088;-70
2021/01/24 07:50:16;;;;;;;9.95;7.72;;;0.90;99.90;;;;;;493350;241;27449;-70
2021/01/24 07:52:19;;;;;;;10.90;6.80;;;1.00;99.90;;;;;;493405;241;27485;-70
2021/01/24 07:54:18;;;;;;;7.85;6.70;;;1.00;99.90;;;;;;493231;241;27621;-69
2021/01/24 07:56:20;;;;;;;12.40;7.35;;;1.00;99.90;;;;;;493419;241;27479;-71
2021/01/24 07:58:22;;;;;;;9.73;7.12;;;1.00;99.90;;;;;;493458;241;27541;-70
2021/01/24 08:00:22;;;;;;;11.55;7.45;;;0.90;99.90;;;;;;493696;241;27386;-70
2021/01/24 08:02:23;;;;;;;9.35;6.57;;;0.90;99.90;;;;;;493779;241;27375;-69
2021/01/24 08:04:25;;;;;;;9.35;6.60;;;0.90;99.90;;;;;;493786;241;27371;-69
2021/01/24 08:06:26;;;;;;;9.82;7.15;;;1.00;99.90;;;;;;493767;241;27960;-69
2021/01/24 08:08:27;;;;;;;9.77;6.95;;;1.00;99.90;;;;;;493765;241;27939;-70
2021/01/24 08:10:28;;;;;;;9.45;7.80;;;1.00;99.90;;;;;;493750;241;27930;-71
2021/01/24 08:12:30;;;;;;;7.82;5.93;;;1.00;99.90;;;;;;493444;241;28108;-69
2021/01/24 08:14:31;;;;;;;10.65;7.25;;;1.00;99.90;;;;;;493385;241;27410;-70
2021/01/24 08:16:32;;;;;;;9.90;7.72;;;1.10;99.90;;;;;;493381;241;27402;-70
2021/01/24 08:18:33;;;;;;;9.95;7.10;;;1.10;99.90;;;;;;493396;241;27494;-70
2021/01/24 08:20:35;;;;;;;9.90;7.47;;;1.10;99.90;;;;;;493356;241;27544;-71
2021/01/24 08:22:36;;;;;;;10.27;6.70;;;1.10;99.90;;;;;;493374;241;27502;-70
2021/01/24 08:24:37;;;;;;;9.00;5.80;;;1.10;99.90;;;;;;493454;241;27498;-70
2021/01/24 08:26:38;;;;;;;10.45;6.40;;;1.10;99.90;;;;;;493507;241;27430;-71
2021/01/24 08:28:40;;;;;;;11.00;6.60;;;1.00;99.90;;;;;;493478;241;27390;-70
2021/01/24 08:30:41;;;;;;;14.90;7.32;;;1.00;99.90;;;;;;493509;241;27418;-70
2021/01/24 08:32:42;;;;;;;9.23;7.15;;;1.10;99.90;;;;;;493549;241;27838;-69
2021/01/24 08:34:43;;;;;;;13.18;6.32;;;1.20;99.90;;;;;;493574;241;27986;-70
2021/01/24 08:36:45;;;;;;;9.40;6.78;;;1.20;99.90;;;;;;493591;241;28088;-72
2021/01/24 08:38:46;;;;;;;9.45;6.50;;;1.20;99.90;;;;;;493558;241;27367;-70
2021/01/24 08:40:47;;;;;;;11.30;6.68;;;1.20;99.90;;;;;;493515;241;27405;-70
2021/01/24 08:42:49;;;;;;;8.20;6.80;;;1.20;99.90;;;;;;493548;241;27493;-69
2021/01/24 08:44:50;;;;;;;10.05;6.30;;;1.20;99.90;;;;;;493473;241;27499;-69
2021/01/24 08:46:51;;;;;;;8.10;6.70;;;1.20;99.90;;;;;;493471;241;27750;-71
2021/01/24 08:48:52;;;;;;;9.98;6.60;;;1.20;99.90;;;;;;493423;241;27477;-69
2021/01/24 08:50:53;;;;;;;10.05;6.40;;;1.20;99.90;;;;;;493338;241;27495;-69
2021/01/24 08:52:55;;;;;;;8.38;6.47;;;1.30;99.90;;;;;;493363;241;27470;-70
2021/01/24 08:54:56;;;;;;;10.60;6.55;;;1.20;99.90;;;;;;493365;241;27497;-69
2021/01/24 08:56:57;;;;;;;9.82;6.20;;;1.20;99.90;;;;;;493404;241;27973;-71
2021/01/24 08:58:58;;;;;;;10.90;6.32;;;1.20;99.90;;;;;;493394;241;27961;-70
2021/01/24 09:01:00;;;;;;;8.27;5.60;;;1.30;99.90;;;;;;493331;241;27975;-70
2021/01/24 09:03:01;;;;;;;7.28;6.43;;;1.30;99.90;;;;;;493307;241;27501;-71
2021/01/24 09:05:03;;;;;;;8.70;6.30;;;1.30;99.90;;;;;;493321;241;27642;-70
2021/01/24 09:07:03;;;;;;;11.35;6.65;;;1.30;99.90;;;;;;493344;241;27609;-70
2021/01/24 09:09:05;;;;;;;7.50;6.30;;;1.30;99.90;;;;;;493391;241;27493;-70
2021/01/24 09:11:06;;;;;;;9.32;6.95;;;1.20;99.90;;;;;;493380;241;27399;-71
2021/01/24 09:13:07;;;;;;;7.85;6.00;;;1.30;99.90;;;;;;493442;241;27526;-72
2021/01/24 09:15:08;;;;;;;10.57;6.65;;;1.40;99.90;;;;;;493386;241;27433;-70
2021/01/24 09:17:10;;;;;;;9.25;6.15;;;1.30;99.90;;;;;;493388;241;27502;-69
2021/01/24 09:19:11;;;;;;;8.00;6.15;;;1.20;99.90;;;;;;493437;241;27473;-69
2021/01/24 09:21:12;;;;;;;7.60;6.30;;;1.30;99.90;;;;;;493339;241;27900;-71
2021/01/24 09:23:13;;;;;;;10.70;7.00;;;1.40;99.90;;;;;;493381;241;27434;-71
2021/01/24 09:25:15;;;;;;;8.82;6.20;;;1.30;99.90;;;;;;493362;241;27414;-71
2021/01/24 09:27:16;;;;;;;8.73;7.30;;;1.30;99.90;;;;;;493388;241;27494;-70
2021/01/24 09:29:17;;;;;;;10.02;7.40;;;1.40;99.90;;;;;;493391;241;27640;-70
2021/01/24 09:31:18;;;;;;;7.95;6.00;;;1.50;99.90;;;;;;493379;241;28963;-69
2021/01/24 09:33:20;;;;;;;7.95;6.20;;;1.40;99.90;;;;;;493383;241;28134;-69
2021/01/24 09:35:21;;;;;;;10.38;8.52;;;1.40;99.90;;;;;;493402;241;27900;-70
2021/01/24 09:37:22;;;;;;;8.13;5.60;;;1.40;99.90;;;;;;493347;241;27502;-69
2021/01/24 09:39:23;;;;;;;7.47;6.07;;;1.40;99.90;;;;;;493391;241;27548;-70
2021/01/24 09:41:25;;;;;;;6.97;5.72;;;1.40;99.90;;;;;;493342;241;27479;-69
2021/01/24 09:43:26;;;;;;;8.80;5.68;;;1.50;99.90;;;;;;493342;241;27430;-70
2021/01/24 09:45:27;;;;;;;7.22;5.80;;;1.50;99.90;;;;;;493369;241;27504;-70
2021/01/24 09:47:28;;;;;;;6.60;5.87;;;1.40;99.90;;;;;;493400;241;27444;-70
2021/01/24 09:49:30;;;;;;;5.85;5.22;;;1.50;99.90;;;;;;493399;241;27538;-70
2021/01/24 09:51:31;;;;;;;7.72;5.80;;;1.50;99.90;;;;;;493265;241;27386;-69
2021/01/24 09:53:32;;;;;;;7.45;5.80;;;1.40;99.90;;;;;;493385;241;27534;-70
2021/01/24 09:55:33;;;;;;;7.40;5.75;;;1.40;99.90;;;;;;493401;241;27427;-70
2021/01/24 09:57:36;;;;;;;8.35;6.03;;;1.40;99.90;;;;;;493509;241;27918;-69
2021/01/24 09:59:36;;;;;;;10.93;6.87;;;1.30;99.90;;;;;;493493;241;27974;-69
2021/01/24 10:01:37;;;;;;;7.97;5.35;;;1.40;99.90;;;;;;493484;241;27849;-69
2021/01/24 10:03:38;;;;;;;8.73;6.55;;;1.50;99.90;;;;;;493621;241;29021;-70
2021/01/24 10:05:40;;;;;;;9.25;7.05;;;1.60;99.90;;;;;;493601;241;27506;-72
2021/01/24 10:07:41;;;;;;;9.63;5.85;;;1.60;99.90;;;;;;493613;241;27370;-69
2021/01/24 10:09:42;;;;;;;8.85;5.68;;;1.60;99.90;;;;;;493600;241;27430;-71
2021/01/24 10:11:44;;;;;;;7.03;5.85;;;1.50;99.90;;;;;;493482;241;27869;-70
2021/01/24 10:13:46;;;;;;;6.65;5.12;;;1.60;99.90;;;;;;493490;241;28063;-70
2021/01/24 10:15:47;;;;;;;10.02;5.22;;;1.70;99.90;;;;;;493457;241;27429;-70
2021/01/24 10:17:48;;;;;;;9.35;6.28;;;1.80;99.90;;;;;;493438;241;27443;-70
2021/01/24 10:19:49;;;;;;;6.45;4.93;;;1.90;99.90;;;;;;493428;241;27471;-69
2021/01/24 10:21:51;;;;;;;6.40;4.82;;;2.10;99.90;;;;;;493312;241;27433;-71
2021/01/24 10:23:52;;;;;;;8.73;5.30;;;2.00;99.90;;;;;;493418;241;27880;-70
2021/01/24 10:25:53;;;;;;;6.37;5.25;;;2.20;99.90;;;;;;493343;241;27561;-70
2021/01/24 10:27:54;;;;;;;8.35;5.03;;;2.40;99.90;;;;;;493377;241;27433;-70
2021/01/24 10:29:56;;;;;;;7.07;5.05;;;2.30;99.90;;;;;;493400;241;27418;-70
2021/01/24 10:31:57;;;;;;;7.85;4.90;;;2.30;99.90;;;;;;493331;241;27422;-70
2021/01/24 10:33:58;;;;;;;6.85;5.00;;;2.30;99.90;;;;;;493405;241;27990;-71
2021/01/24 10:35:59;;;;;;;8.40;4.90;;;2.30;99.90;;;;;;493355;241;27968;-70
2021/01/24 10:38:01;;;;;;;7.20;5.43;;;2.40;99.90;;;;;;493391;241;28035;-70